sensor_id;sensor_type;location;lat;lon;timestamp;noise_LAeq;noise_LA_min;noise_LA_max;noise_LA01;noise_LA95
74470;Laerm;62918;55.706;37.816;2024-03-06T00:00:26;55.59;46.85;63.37;;
74470;Laerm;62918;55.706;37.816;2024-03-06T00:00:56;51.74;44.46;71.27;;
74470;Laerm;62918;55.706;37.816;2024-03-06T00:01:27;52.90;44.20;70.65;;
74470;Laerm;62918;55.706;37.816;2024-03-06T00:01:57;52.63;43.95;72.48;;
74470;Laerm;62918;55.706;37.816;2024-03-06T00:02:28;57.16;45.04;64.89;;
74470;Laerm;62918;55.706;37.816;2024-03-06T00:02:58;50.03;43.61;58.54;;
74470;Laerm;62918;55.706;37.816;2024-03-06T00:03:29;47.59;43.52;55.19;;
74470;Laerm;62918;55.706;37.816;2024-03-06T00:04:00;49.40;43.18;54.92;;
74470;Laerm;62918;55.706;37.816;2024-03-06T00:04:31;47.16;42.51;60.12;;
74470;Laerm;62918;55.706;37.816;2024-03-06T00:05:02;48.54;43.72;57.71;;
74470;Laerm;62918;55.706;37.816;2024-03-06T00:05:32;58.87;48.92;64.48;;
74470;Laerm;62918;55.706;37.816;2024-03-06T00:06:03;51.34;47.28;60.38;;
74470;Laerm;62918;55.706;37.816;2024-03-06T00:06:34;61.79;44.74;74.76;;
74470;Laerm;62918;55.706;37.816;2024-03-06T00:07:04;55.41;46.17;60.59;;
74470;Laerm;62918;55.706;37.816;2024-03-06T00:07:35;46.84;43.62;49.06;;
74470;Laerm;62918;55.706;37.816;2024-03-06T00:08:05;58.03;45.53;65.16;;
74470;Laerm;62918;55.706;37.816;2024-03-06T00:08:36;47.71;43.76;52.43;;
74470;Laerm;62918;55.706;37.816;2024-03-06T00:09:07;46.12;42.76;50.08;;
74470;Laerm;62918;55.706;37.816;2024-03-06T00:09:38;45.75;43.25;47.95;;
74470;Laerm;62918;55.706;37.816;2024-03-06T00:10:09;50.11;42.84;66.59;;
74470;Laerm;62918;55.706;37.816;2024-03-06T00:10:41;46.83;43.10;50.58;;
74470;Laerm;62918;55.706;37.816;2024-03-06T00:11:11;46.64;43.61;49.58;;
74470;Laerm;62918;55.706;37.816;2024-03-06T00:11:42;58.79;44.91;67.24;;
74470;Laerm;62918;55.706;37.816;2024-03-06T00:12:12;51.10;44.08;61.36;;
74470;Laerm;62918;55.706;37.816;2024-03-06T00:12:43;53.71;46.54;61.86;;
74470;Laerm;62918;55.706;37.816;2024-03-06T00:13:13;47.12;43.40;53.91;;
74470;Laerm;62918;55.706;37.816;2024-03-06T00:13:44;56.94;45.87;64.54;;
74470;Laerm;62918;55.706;37.816;2024-03-06T00:14:17;57.60;47.94;73.82;;
74470;Laerm;62918;55.706;37.816;2024-03-06T00:14:48;55.38;48.40;61.94;;
74470;Laerm;62918;55.706;37.816;2024-03-06T00:15:18;58.63;50.39;63.45;;
74470;Laerm;62918;55.706;37.816;2024-03-06T00:15:49;53.64;44.09;60.94;;
74470;Laerm;62918;55.706;37.816;2024-03-06T00:16:20;48.13;43.85;56.13;;
74470;Laerm;62918;55.706;37.816;2024-03-06T00:16:51;47.24;43.61;51.81;;
74470;Laerm;62918;55.706;37.816;2024-03-06T00:17:21;51.13;43.91;74.87;;
74470;Laerm;62918;55.706;37.816;2024-03-06T00:17:52;48.17;44.89;56.02;;
74470;Laerm;62918;55.706;37.816;2024-03-06T00:18:22;48.00;45.84;50.36;;
74470;Laerm;62918;55.706;37.816;2024-03-06T00:18:58;48.31;45.99;51.21;;
74470;Laerm;62918;55.706;37.816;2024-03-06T00:19:29;48.48;45.98;52.33;;
74470;Laerm;62918;55.706;37.816;2024-03-06T00:19:59;50.65;46.30;57.38;;
74470;Laerm;62918;55.706;37.816;2024-03-06T00:20:30;48.54;45.42;53.27;;
74470;Laerm;62918;55.706;37.816;2024-03-06T00:21:00;52.12;46.56;59.71;;
74470;Laerm;62918;55.706;37.816;2024-03-06T00:21:31;53.70;47.74;58.69;;
74470;Laerm;62918;55.706;37.816;2024-03-06T00:22:02;48.51;46.10;51.11;;
74470;Laerm;62918;55.706;37.816;2024-03-06T00:22:32;48.59;45.63;51.29;;
74470;Laerm;62918;55.706;37.816;2024-03-06T00:23:03;47.95;44.92;50.51;;
74470;Laerm;62918;55.706;37.816;2024-03-06T00:23:34;47.81;45.44;51.12;;
74470;Laerm;62918;55.706;37.816;2024-03-06T00:24:05;49.68;45.32;55.32;;
74470;Laerm;62918;55.706;37.816;2024-03-06T00:24:36;57.10;51.37;62.42;;
74470;Laerm;62918;55.706;37.816;2024-03-06T00:25:07;49.42;45.78;55.10;;
74470;Laerm;62918;55.706;37.816;2024-03-06T00:25:38;51.70;45.98;61.75;;
74470;Laerm;62918;55.706;37.816;2024-03-06T00:26:09;49.05;46.52;56.31;;
74470;Laerm;62918;55.706;37.816;2024-03-06T00:26:41;58.87;46.19;69.25;;
74470;Laerm;62918;55.706;37.816;2024-03-06T00:27:12;56.65;47.31;64.46;;
74470;Laerm;62918;55.706;37.816;2024-03-06T00:27:43;50.82;46.92;57.79;;
74470;Laerm;62918;55.706;37.816;2024-03-06T00:28:14;50.22;46.62;54.39;;
74470;Laerm;62918;55.706;37.816;2024-03-06T00:28:44;51.79;47.58;57.12;;
74470;Laerm;62918;55.706;37.816;2024-03-06T00:29:15;57.20;50.57;62.41;;
74470;Laerm;62918;55.706;37.816;2024-03-06T00:29:45;53.66;48.40;61.07;;
74470;Laerm;62918;55.706;37.816;2024-03-06T00:30:16;57.05;49.34;66.43;;
74470;Laerm;62918;55.706;37.816;2024-03-06T00:30:47;54.81;49.68;63.94;;
74470;Laerm;62918;55.706;37.816;2024-03-06T00:31:17;51.51;48.42;58.08;;
74470;Laerm;62918;55.706;37.816;2024-03-06T00:31:48;51.77;48.42;62.88;;
74470;Laerm;62918;55.706;37.816;2024-03-06T00:32:18;50.75;47.81;53.55;;
74470;Laerm;62918;55.706;37.816;2024-03-06T00:32:49;58.13;49.06;64.76;;
74470;Laerm;62918;55.706;37.816;2024-03-06T00:33:20;51.25;48.83;57.68;;
74470;Laerm;62918;55.706;37.816;2024-03-06T00:33:50;56.02;47.74;62.47;;
74470;Laerm;62918;55.706;37.816;2024-03-06T00:34:21;54.95;48.38;62.52;;
74470;Laerm;62918;55.706;37.816;2024-03-06T00:34:51;52.74;48.78;62.20;;
74470;Laerm;62918;55.706;37.816;2024-03-06T00:35:22;56.13;48.72;71.96;;
74470;Laerm;62918;55.706;37.816;2024-03-06T00:35:53;53.63;49.13;60.09;;
74470;Laerm;62918;55.706;37.816;2024-03-06T00:36:24;54.61;49.28;60.10;;
74470;Laerm;62918;55.706;37.816;2024-03-06T00:36:54;52.24;47.04;59.45;;
74470;Laerm;62918;55.706;37.816;2024-03-06T00:37:26;60.84;50.16;75.72;;
74470;Laerm;62918;55.706;37.816;2024-03-06T00:37:57;59.30;50.01;73.84;;
74470;Laerm;62918;55.706;37.816;2024-03-06T00:38:32;48.38;45.67;57.55;;
74470;Laerm;62918;55.706;37.816;2024-03-06T00:39:02;51.04;45.95;60.76;;
74470;Laerm;62918;55.706;37.816;2024-03-06T00:39:35;50.33;43.90;56.10;;
74470;Laerm;62918;55.706;37.816;2024-03-06T00:40:06;47.79;44.59;54.29;;
74470;Laerm;62918;55.706;37.816;2024-03-06T00:40:36;48.93;46.20;53.45;;
74470;Laerm;62918;55.706;37.816;2024-03-06T00:41:07;52.15;47.89;57.94;;
74470;Laerm;62918;55.706;37.816;2024-03-06T00:41:37;56.13;49.28;71.29;;
74470;Laerm;62918;55.706;37.816;2024-03-06T00:42:08;63.99;50.41;72.73;;
74470;Laerm;62918;55.706;37.816;2024-03-06T00:42:40;52.43;43.33;58.71;;
74470;Laerm;62918;55.706;37.816;2024-03-06T00:43:12;49.98;43.34;58.78;;
74470;Laerm;62918;55.706;37.816;2024-03-06T00:43:43;49.01;42.85;56.35;;
74470;Laerm;62918;55.706;37.816;2024-03-06T00:44:14;51.06;44.36;57.30;;
74470;Laerm;62918;55.706;37.816;2024-03-06T00:44:45;55.00;49.08;64.71;;
74470;Laerm;62918;55.706;37.816;2024-03-06T00:45:16;61.60;48.81;67.59;;
74470;Laerm;62918;55.706;37.816;2024-03-06T00:45:47;49.25;44.88;59.26;;
74470;Laerm;62918;55.706;37.816;2024-03-06T00:46:17;46.39;43.09;49.60;;
74470;Laerm;62918;55.706;37.816;2024-03-06T00:46:48;47.00;43.74;53.34;;
74470;Laerm;62918;55.706;37.816;2024-03-06T00:47:19;46.73;43.67;49.19;;
74470;Laerm;62918;55.706;37.816;2024-03-06T00:47:50;47.02;43.83;51.23;;
74470;Laerm;62918;55.706;37.816;2024-03-06T00:48:21;54.17;45.90;61.02;;
74470;Laerm;62918;55.706;37.816;2024-03-06T00:48:51;52.02;48.53;65.56;;
74470;Laerm;62918;55.706;37.816;2024-03-06T00:49:22;48.52;44.30;52.23;;
74470;Laerm;62918;55.706;37.816;2024-03-06T00:49:52;51.06;45.58;55.67;;
74470;Laerm;62918;55.706;37.816;2024-03-06T00:50:23;56.46;45.23;65.94;;
74470;Laerm;62918;55.706;37.816;2024-03-06T00:50:53;46.50;43.44;51.01;;
74470;Laerm;62918;55.706;37.816;2024-03-06T00:51:24;55.32;45.13;62.43;;
74470;Laerm;62918;55.706;37.816;2024-03-06T00:51:55;49.69;45.73;57.97;;
74470;Laerm;62918;55.706;37.816;2024-03-06T00:52:25;48.80;43.33;55.23;;
74470;Laerm;62918;55.706;37.816;2024-03-06T00:52:56;57.34;45.80;65.56;;
74470;Laerm;62918;55.706;37.816;2024-03-06T00:53:26;46.53;43.60;50.26;;
74470;Laerm;62918;55.706;37.816;2024-03-06T00:53:57;45.48;42.24;49.63;;
74470;Laerm;62918;55.706;37.816;2024-03-06T00:54:27;45.49;42.30;48.75;;
74470;Laerm;62918;55.706;37.816;2024-03-06T00:54:58;51.74;44.35;57.96;;
74470;Laerm;62918;55.706;37.816;2024-03-06T00:55:28;55.21;49.35;60.54;;
74470;Laerm;62918;55.706;37.816;2024-03-06T00:55:59;56.02;51.43;60.29;;
74470;Laerm;62918;55.706;37.816;2024-03-06T00:56:29;55.84;49.40;62.20;;
74470;Laerm;62918;55.706;37.816;2024-03-06T00:57:01;54.30;46.93;60.82;;
74470;Laerm;62918;55.706;37.816;2024-03-06T00:57:32;53.67;47.70;58.50;;
74470;Laerm;62918;55.706;37.816;2024-03-06T00:58:02;47.73;44.17;51.02;;
74470;Laerm;62918;55.706;37.816;2024-03-06T00:58:33;59.91;46.42;65.26;;
74470;Laerm;62918;55.706;37.816;2024-03-06T00:59:03;52.88;44.69;60.96;;
74470;Laerm;62918;55.706;37.816;2024-03-06T00:59:34;51.23;44.77;65.32;;
74470;Laerm;62918;55.706;37.816;2024-03-06T01:00:05;47.94;43.99;57.32;;
74470;Laerm;62918;55.706;37.816;2024-03-06T01:00:40;47.42;43.22;54.27;;
74470;Laerm;62918;55.706;37.816;2024-03-06T01:01:11;55.51;45.45;62.70;;
74470;Laerm;62918;55.706;37.816;2024-03-06T01:01:41;47.34;43.92;52.15;;
74470;Laerm;62918;55.706;37.816;2024-03-06T01:02:12;53.62;45.20;59.55;;
74470;Laerm;62918;55.706;37.816;2024-03-06T01:02:43;45.76;42.81;48.74;;
74470;Laerm;62918;55.706;37.816;2024-03-06T01:03:13;49.27;42.96;54.34;;
74470;Laerm;62918;55.706;37.816;2024-03-06T01:03:44;52.91;44.84;62.92;;
74470;Laerm;62918;55.706;37.816;2024-03-06T01:04:14;55.14;42.98;63.31;;
74470;Laerm;62918;55.706;37.816;2024-03-06T01:04:45;48.86;43.61;53.62;;
74470;Laerm;62918;55.706;37.816;2024-03-06T01:05:16;46.06;43.08;49.62;;
74470;Laerm;62918;55.706;37.816;2024-03-06T01:05:46;51.20;43.20;57.12;;
74470;Laerm;62918;55.706;37.816;2024-03-06T01:06:17;48.01;44.02;52.28;;
74470;Laerm;62918;55.706;37.816;2024-03-06T01:06:47;46.04;43.15;51.38;;
74470;Laerm;62918;55.706;37.816;2024-03-06T01:07:18;47.56;42.79;56.98;;
74470;Laerm;62918;55.706;37.816;2024-03-06T01:07:49;54.38;43.78;61.49;;
74470;Laerm;62918;55.706;37.816;2024-03-06T01:08:21;50.04;42.72;57.54;;
74470;Laerm;62918;55.706;37.816;2024-03-06T01:08:52;47.43;42.15;52.03;;
74470;Laerm;62918;55.706;37.816;2024-03-06T01:09:22;48.47;45.25;55.65;;
74470;Laerm;62918;55.706;37.816;2024-03-06T01:09:53;53.96;47.99;61.01;;
74470;Laerm;62918;55.706;37.816;2024-03-06T01:10:24;47.64;43.95;51.04;;
74470;Laerm;62918;55.706;37.816;2024-03-06T01:10:54;50.69;43.41;57.16;;
74470;Laerm;62918;55.706;37.816;2024-03-06T01:11:25;51.31;46.78;56.56;;
74470;Laerm;62918;55.706;37.816;2024-03-06T01:11:56;45.54;42.01;48.78;;
74470;Laerm;62918;55.706;37.816;2024-03-06T01:12:27;45.44;42.50;50.42;;
74470;Laerm;62918;55.706;37.816;2024-03-06T01:12:57;59.59;42.85;67.64;;
74470;Laerm;62918;55.706;37.816;2024-03-06T01:13:28;55.24;46.41;63.33;;
74470;Laerm;62918;55.706;37.816;2024-03-06T01:13:58;47.25;41.68;54.96;;
74470;Laerm;62918;55.706;37.816;2024-03-06T01:14:29;45.25;41.60;48.57;;
74470;Laerm;62918;55.706;37.816;2024-03-06T01:15:01;47.89;42.24;59.19;;
74470;Laerm;62918;55.706;37.816;2024-03-06T01:15:32;49.89;42.47;60.91;;
74470;Laerm;62918;55.706;37.816;2024-03-06T01:16:03;56.73;47.37;67.43;;
74470;Laerm;62918;55.706;37.816;2024-03-06T01:16:34;57.47;52.93;61.47;;
74470;Laerm;62918;55.706;37.816;2024-03-06T01:17:04;63.12;58.03;67.48;;
74470;Laerm;62918;55.706;37.816;2024-03-06T01:17:35;57.81;49.93;65.69;;
74470;Laerm;62918;55.706;37.816;2024-03-06T01:18:06;57.85;46.62;68.14;;
74470;Laerm;62918;55.706;37.816;2024-03-06T01:18:36;60.06;47.71;66.87;;
74470;Laerm;62918;55.706;37.816;2024-03-06T01:19:07;47.30;43.61;53.31;;
74470;Laerm;62918;55.706;37.816;2024-03-06T01:19:38;51.92;45.62;59.08;;
74470;Laerm;62918;55.706;37.816;2024-03-06T01:20:08;52.01;44.43;58.41;;
74470;Laerm;62918;55.706;37.816;2024-03-06T01:20:39;54.42;48.40;66.64;;
74470;Laerm;62918;55.706;37.816;2024-03-06T01:21:10;52.87;45.72;59.87;;
74470;Laerm;62918;55.706;37.816;2024-03-06T01:21:41;52.54;45.72;59.58;;
74470;Laerm;62918;55.706;37.816;2024-03-06T01:22:11;49.49;44.55;60.92;;
74470;Laerm;62918;55.706;37.816;2024-03-06T01:22:43;53.67;44.39;61.23;;
74470;Laerm;62918;55.706;37.816;2024-03-06T01:23:16;46.10;43.19;51.70;;
74470;Laerm;62918;55.706;37.816;2024-03-06T01:23:47;49.78;44.19;54.34;;
74470;Laerm;62918;55.706;37.816;2024-03-06T01:24:17;45.82;41.63;50.60;;
74470;Laerm;62918;55.706;37.816;2024-03-06T01:24:48;51.56;43.59;60.91;;
74470;Laerm;62918;55.706;37.816;2024-03-06T01:25:21;53.83;43.94;63.24;;
74470;Laerm;62918;55.706;37.816;2024-03-06T01:25:51;61.71;46.38;67.09;;
74470;Laerm;62918;55.706;37.816;2024-03-06T01:26:22;52.72;44.42;60.16;;
74470;Laerm;62918;55.706;37.816;2024-03-06T01:26:52;59.01;45.75;65.15;;
74470;Laerm;62918;55.706;37.816;2024-03-06T01:27:23;50.99;44.03;58.02;;
74470;Laerm;62918;55.706;37.816;2024-03-06T01:27:54;45.92;42.70;49.55;;
74470;Laerm;62918;55.706;37.816;2024-03-06T01:28:24;57.51;42.98;72.21;;
74470;Laerm;62918;55.706;37.816;2024-03-06T01:28:55;54.15;43.84;64.01;;
74470;Laerm;62918;55.706;37.816;2024-03-06T01:29:25;57.11;45.71;70.80;;
74470;Laerm;62918;55.706;37.816;2024-03-06T01:29:56;47.18;44.42;52.19;;
74470;Laerm;62918;55.706;37.816;2024-03-06T01:30:26;55.31;44.86;61.03;;
74470;Laerm;62918;55.706;37.816;2024-03-06T01:30:57;45.85;43.56;48.99;;
74470;Laerm;62918;55.706;37.816;2024-03-06T01:31:29;47.33;44.11;53.12;;
74470;Laerm;62918;55.706;37.816;2024-03-06T01:31:59;52.72;44.57;57.91;;
74470;Laerm;62918;55.706;37.816;2024-03-06T01:32:30;50.02;46.55;54.48;;
74470;Laerm;62918;55.706;37.816;2024-03-06T01:33:01;54.34;48.40;59.74;;
74470;Laerm;62918;55.706;37.816;2024-03-06T01:33:31;58.15;44.99;66.88;;
74470;Laerm;62918;55.706;37.816;2024-03-06T01:34:02;54.66;45.78;61.42;;
74470;Laerm;62918;55.706;37.816;2024-03-06T01:34:33;54.04;48.62;60.92;;
74470;Laerm;62918;55.706;37.816;2024-03-06T01:35:04;57.85;46.73;64.86;;
74470;Laerm;62918;55.706;37.816;2024-03-06T01:35:35;58.32;49.82;64.27;;
74470;Laerm;62918;55.706;37.816;2024-03-06T01:36:06;55.02;46.84;63.63;;
74470;Laerm;62918;55.706;37.816;2024-03-06T01:36:36;57.18;46.82;65.19;;
74470;Laerm;62918;55.706;37.816;2024-03-06T01:37:07;47.33;43.28;53.14;;
74470;Laerm;62918;55.706;37.816;2024-03-06T01:37:38;46.26;42.11;51.67;;
74470;Laerm;62918;55.706;37.816;2024-03-06T01:38:08;45.76;42.72;49.93;;
74470;Laerm;62918;55.706;37.816;2024-03-06T01:38:40;45.33;41.87;48.16;;
74470;Laerm;62918;55.706;37.816;2024-03-06T01:39:11;45.26;42.21;49.07;;
74470;Laerm;62918;55.706;37.816;2024-03-06T01:39:43;56.26;46.17;62.47;;
74470;Laerm;62918;55.706;37.816;2024-03-06T01:40:14;46.95;43.13;51.61;;
74470;Laerm;62918;55.706;37.816;2024-03-06T01:40:44;46.71;43.11;57.93;;
74470;Laerm;62918;55.706;37.816;2024-03-06T01:41:15;51.09;44.29;57.15;;
74470;Laerm;62918;55.706;37.816;2024-03-06T01:41:47;47.86;44.69;51.09;;
74470;Laerm;62918;55.706;37.816;2024-03-06T01:42:17;52.86;44.97;61.38;;
74470;Laerm;62918;55.706;37.816;2024-03-06T01:42:48;51.28;44.20;57.66;;
74470;Laerm;62918;55.706;37.816;2024-03-06T01:43:23;46.46;43.78;49.36;;
74470;Laerm;62918;55.706;37.816;2024-03-06T01:43:54;56.08;45.87;65.60;;
74470;Laerm;62918;55.706;37.816;2024-03-06T01:44:25;57.87;51.19;66.42;;
74470;Laerm;62918;55.706;37.816;2024-03-06T01:44:56;55.00;47.07;61.97;;
74470;Laerm;62918;55.706;37.816;2024-03-06T01:45:26;58.21;49.95;64.37;;
74470;Laerm;62918;55.706;37.816;2024-03-06T01:45:57;48.98;44.53;56.96;;
74470;Laerm;62918;55.706;37.816;2024-03-06T01:46:27;48.20;44.08;58.82;;
74470;Laerm;62918;55.706;37.816;2024-03-06T01:46:58;48.40;44.96;54.87;;
74470;Laerm;62918;55.706;37.816;2024-03-06T01:47:28;52.39;44.32;59.47;;
74470;Laerm;62918;55.706;37.816;2024-03-06T01:47:59;47.67;44.43;51.54;;
74470;Laerm;62918;55.706;37.816;2024-03-06T01:48:30;64.85;44.42;79.76;;
74470;Laerm;62918;55.706;37.816;2024-03-06T01:49:01;61.05;44.69;72.56;;
74470;Laerm;62918;55.706;37.816;2024-03-06T01:49:32;49.41;43.09;54.23;;
74470;Laerm;62918;55.706;37.816;2024-03-06T01:50:04;48.03;42.28;57.51;;
74470;Laerm;62918;55.706;37.816;2024-03-06T01:50:39;46.94;42.86;55.85;;
74470;Laerm;62918;55.706;37.816;2024-03-06T01:51:10;56.55;44.03;64.49;;
74470;Laerm;62918;55.706;37.816;2024-03-06T01:51:43;57.43;44.97;69.85;;
74470;Laerm;62918;55.706;37.816;2024-03-06T01:52:16;46.39;43.36;55.17;;
74470;Laerm;62918;55.706;37.816;2024-03-06T01:52:47;46.26;43.32;49.85;;
74470;Laerm;62918;55.706;37.816;2024-03-06T01:53:18;45.66;42.50;48.76;;
74470;Laerm;62918;55.706;37.816;2024-03-06T01:53:50;54.14;42.62;61.78;;
74470;Laerm;62918;55.706;37.816;2024-03-06T01:54:20;47.16;43.32;61.56;;
74470;Laerm;62918;55.706;37.816;2024-03-06T01:54:51;46.89;42.88;64.78;;
74470;Laerm;62918;55.706;37.816;2024-03-06T01:55:22;47.16;42.86;51.31;;
74470;Laerm;62918;55.706;37.816;2024-03-06T01:55:53;49.47;44.79;57.34;;
74470;Laerm;62918;55.706;37.816;2024-03-06T01:56:24;58.70;49.23;68.00;;
74470;Laerm;62918;55.706;37.816;2024-03-06T01:56:55;49.37;44.77;55.62;;
74470;Laerm;62918;55.706;37.816;2024-03-06T01:57:26;54.50;43.83;64.65;;
74470;Laerm;62918;55.706;37.816;2024-03-06T01:57:56;61.28;48.54;69.70;;
74470;Laerm;62918;55.706;37.816;2024-03-06T01:58:28;60.66;47.87;68.97;;
74470;Laerm;62918;55.706;37.816;2024-03-06T01:58:58;57.80;48.15;63.72;;
74470;Laerm;62918;55.706;37.816;2024-03-06T01:59:30;51.84;47.45;60.06;;
74470;Laerm;62918;55.706;37.816;2024-03-06T02:00:02;50.20;47.44;52.88;;
74470;Laerm;62918;55.706;37.816;2024-03-06T02:00:34;50.57;47.21;54.28;;
74470;Laerm;62918;55.706;37.816;2024-03-06T02:01:05;54.59;47.75;68.12;;
74470;Laerm;62918;55.706;37.816;2024-03-06T02:01:36;55.40;48.66;60.24;;
74470;Laerm;62918;55.706;37.816;2024-03-06T02:02:06;59.13;51.99;66.73;;
74470;Laerm;62918;55.706;37.816;2024-03-06T02:02:41;60.90;49.55;67.50;;
74470;Laerm;62918;55.706;37.816;2024-03-06T02:03:11;59.74;49.65;66.44;;
74470;Laerm;62918;55.706;37.816;2024-03-06T02:03:43;59.94;44.92;66.66;;
74470;Laerm;62918;55.706;37.816;2024-03-06T02:04:15;45.50;42.37;51.42;;
74470;Laerm;62918;55.706;37.816;2024-03-06T02:04:48;45.13;42.22;49.22;;
74470;Laerm;62918;55.706;37.816;2024-03-06T02:05:19;45.52;42.53;53.10;;
74470;Laerm;62918;55.706;37.816;2024-03-06T02:05:51;53.31;46.62;65.95;;
74470;Laerm;62918;55.706;37.816;2024-03-06T02:06:23;60.59;50.86;67.49;;
74470;Laerm;62918;55.706;37.816;2024-03-06T02:06:53;56.95;49.89;65.73;;
74470;Laerm;62918;55.706;37.816;2024-03-06T02:07:24;56.13;50.42;71.83;;
74470;Laerm;62918;55.706;37.816;2024-03-06T02:07:57;55.45;49.19;63.83;;
74470;Laerm;62918;55.706;37.816;2024-03-06T02:08:28;58.82;49.75;63.79;;
74470;Laerm;62918;55.706;37.816;2024-03-06T02:08:58;53.12;48.93;59.35;;
74470;Laerm;62918;55.706;37.816;2024-03-06T02:09:29;59.81;51.58;67.57;;
74470;Laerm;62918;55.706;37.816;2024-03-06T02:09:59;56.22;50.29;61.55;;
74470;Laerm;62918;55.706;37.816;2024-03-06T02:10:30;56.17;51.23;64.49;;
74470;Laerm;62918;55.706;37.816;2024-03-06T02:11:01;58.81;51.63;64.43;;
74470;Laerm;62918;55.706;37.816;2024-03-06T02:11:33;53.51;47.91;58.47;;
74470;Laerm;62918;55.706;37.816;2024-03-06T02:12:05;52.67;47.38;56.81;;
74470;Laerm;62918;55.706;37.816;2024-03-06T02:12:38;59.11;50.46;69.39;;
74470;Laerm;62918;55.706;37.816;2024-03-06T02:13:09;54.08;47.63;59.68;;
74470;Laerm;62918;55.706;37.816;2024-03-06T02:13:40;52.78;48.07;61.63;;
74470;Laerm;62918;55.706;37.816;2024-03-06T02:14:12;59.56;50.60;65.43;;
74470;Laerm;62918;55.706;37.816;2024-03-06T02:14:43;54.87;50.27;64.42;;
74470;Laerm;62918;55.706;37.816;2024-03-06T02:15:14;62.97;51.90;69.31;;
74470;Laerm;62918;55.706;37.816;2024-03-06T02:15:45;58.81;50.56;66.19;;
74470;Laerm;62918;55.706;37.816;2024-03-06T02:16:16;55.57;47.83;61.67;;
74470;Laerm;62918;55.706;37.816;2024-03-06T02:16:47;53.52;46.06;59.14;;
74470;Laerm;62918;55.706;37.816;2024-03-06T02:17:17;50.23;44.78;58.03;;
74470;Laerm;62918;55.706;37.816;2024-03-06T02:17:48;54.64;45.97;60.44;;
74470;Laerm;62918;55.706;37.816;2024-03-06T02:18:18;52.89;46.05;59.84;;
74470;Laerm;62918;55.706;37.816;2024-03-06T02:18:55;55.40;45.95;63.80;;
74470;Laerm;62918;55.706;37.816;2024-03-06T02:19:40;55.37;48.18;62.46;;
74470;Laerm;62918;55.706;37.816;2024-03-06T02:20:11;54.19;45.60;61.77;;
74470;Laerm;62918;55.706;37.816;2024-03-06T02:20:42;54.85;46.84;63.24;;
74470;Laerm;62918;55.706;37.816;2024-03-06T02:21:13;51.44;46.29;58.84;;
74470;Laerm;62918;55.706;37.816;2024-03-06T02:21:44;54.29;45.85;60.43;;
74470;Laerm;62918;55.706;37.816;2024-03-06T02:22:16;56.15;44.46;63.67;;
74470;Laerm;62918;55.706;37.816;2024-03-06T02:22:46;50.86;45.26;56.57;;
74470;Laerm;62918;55.706;37.816;2024-03-06T02:23:17;48.03;44.62;53.39;;
74470;Laerm;62918;55.706;37.816;2024-03-06T02:23:52;45.48;42.30;48.33;;
74470;Laerm;62918;55.706;37.816;2024-03-06T02:24:23;45.96;43.24;49.79;;
74470;Laerm;62918;55.706;37.816;2024-03-06T02:24:54;51.64;43.59;58.98;;
74470;Laerm;62918;55.706;37.816;2024-03-06T02:25:25;54.93;44.84;62.58;;
74470;Laerm;62918;55.706;37.816;2024-03-06T02:25:55;52.03;47.42;56.43;;
74470;Laerm;62918;55.706;37.816;2024-03-06T02:26:26;54.60;45.32;61.97;;
74470;Laerm;62918;55.706;37.816;2024-03-06T02:26:56;65.07;47.70;74.58;;
74470;Laerm;62918;55.706;37.816;2024-03-06T02:27:27;62.65;47.05;72.20;;
74470;Laerm;62918;55.706;37.816;2024-03-06T02:27:58;62.13;54.39;67.79;;
74470;Laerm;62918;55.706;37.816;2024-03-06T02:28:29;53.64;47.69;62.94;;
74470;Laerm;62918;55.706;37.816;2024-03-06T02:29:00;58.98;48.66;71.59;;
74470;Laerm;62918;55.706;37.816;2024-03-06T02:29:31;57.45;48.24;62.10;;
74470;Laerm;62918;55.706;37.816;2024-03-06T02:30:03;54.58;48.40;62.87;;
74470;Laerm;62918;55.706;37.816;2024-03-06T02:30:34;63.93;52.33;70.35;;
74470;Laerm;62918;55.706;37.816;2024-03-06T02:31:06;55.55;48.42;62.71;;
74470;Laerm;62918;55.706;37.816;2024-03-06T02:31:37;60.03;48.14;65.19;;
74470;Laerm;62918;55.706;37.816;2024-03-06T02:32:11;57.34;50.37;68.31;;
74470;Laerm;62918;55.706;37.816;2024-03-06T02:32:42;58.28;48.67;63.36;;
74470;Laerm;62918;55.706;37.816;2024-03-06T02:33:14;46.52;43.08;51.76;;
74470;Laerm;62918;55.706;37.816;2024-03-06T02:33:46;57.88;43.51;64.74;;
74470;Laerm;62918;55.706;37.816;2024-03-06T02:34:19;59.70;51.79;68.03;;
74470;Laerm;62918;55.706;37.816;2024-03-06T02:34:51;60.49;50.04;68.74;;
74470;Laerm;62918;55.706;37.816;2024-03-06T02:35:22;62.73;52.45;68.04;;
74470;Laerm;62918;55.706;37.816;2024-03-06T02:35:53;62.62;52.69;69.71;;
74470;Laerm;62918;55.706;37.816;2024-03-06T02:36:24;62.85;49.79;69.09;;
74470;Laerm;62918;55.706;37.816;2024-03-06T02:36:54;56.65;43.98;63.47;;
74470;Laerm;62918;55.706;37.816;2024-03-06T02:37:25;49.23;44.07;60.84;;
74470;Laerm;62918;55.706;37.816;2024-03-06T02:37:55;57.52;48.29;65.71;;
74470;Laerm;62918;55.706;37.816;2024-03-06T02:38:27;58.83;51.50;62.90;;
74470;Laerm;62918;55.706;37.816;2024-03-06T02:38:57;55.26;47.97;64.12;;
74470;Laerm;62918;55.706;37.816;2024-03-06T02:39:28;50.53;44.24;59.36;;
74470;Laerm;62918;55.706;37.816;2024-03-06T02:39:58;64.25;56.28;69.89;;
74470;Laerm;62918;55.706;37.816;2024-03-06T02:40:30;58.88;47.86;68.84;;
74470;Laerm;62918;55.706;37.816;2024-03-06T02:41:01;52.67;43.88;61.81;;
74470;Laerm;62918;55.706;37.816;2024-03-06T02:41:31;49.08;44.29;57.43;;
74470;Laerm;62918;55.706;37.816;2024-03-06T02:42:03;47.50;44.45;51.68;;
74470;Laerm;62918;55.706;37.816;2024-03-06T02:42:33;54.04;48.00;59.42;;
74470;Laerm;62918;55.706;37.816;2024-03-06T02:43:04;58.81;51.21;65.30;;
74470;Laerm;62918;55.706;37.816;2024-03-06T02:43:35;57.33;50.23;63.67;;
74470;Laerm;62918;55.706;37.816;2024-03-06T02:44:06;61.92;53.39;67.27;;
74470;Laerm;62918;55.706;37.816;2024-03-06T02:44:37;56.60;48.25;62.68;;
74470;Laerm;62918;55.706;37.816;2024-03-06T02:45:08;53.98;49.36;59.75;;
74470;Laerm;62918;55.706;37.816;2024-03-06T02:45:39;59.08;49.68;69.53;;
74470;Laerm;62918;55.706;37.816;2024-03-06T02:46:09;49.58;45.94;55.11;;
74470;Laerm;62918;55.706;37.816;2024-03-06T02:46:40;58.75;50.59;63.67;;
74470;Laerm;62918;55.706;37.816;2024-03-06T02:47:11;59.94;51.91;65.90;;
74470;Laerm;62918;55.706;37.816;2024-03-06T02:47:42;55.48;50.07;59.96;;
74470;Laerm;62918;55.706;37.816;2024-03-06T02:48:12;54.84;48.94;59.11;;
74470;Laerm;62918;55.706;37.816;2024-03-06T02:48:43;57.21;50.32;68.82;;
74470;Laerm;62918;55.706;37.816;2024-03-06T02:49:15;53.93;49.62;59.44;;
74470;Laerm;62918;55.706;37.816;2024-03-06T02:49:45;58.47;49.93;65.25;;
74470;Laerm;62918;55.706;37.816;2024-03-06T02:50:16;59.55;51.72;65.90;;
74470;Laerm;62918;55.706;37.816;2024-03-06T02:50:46;61.57;53.13;68.39;;
74470;Laerm;62918;55.706;37.816;2024-03-06T02:51:21;61.85;54.82;70.28;;